TAF LFRS
AMD LFRS 270654Z 2706/2812 30010KT 9999 SCT040 TEMPO 2706/2718 31015G25KT 4000 SHRA BKN030CB PROB40 TEMPO 2707/2716 31020G30KT=
METAR LFRS
LFRS 270800Z AUTO 28013KT 9999 SCT020 BKN033 BKN100 04/02 Q0996 TEMPO 31020G30KT 4000 SHRA BKN030CB=
LFRS 270730Z AUTO 29014KT 9999 FEW016/// SCT037/// BKN060/// ///TCU 04/02 Q0996 TEMPO 31020G30KT 4000 SHRA BKN030CB=
LFRS 270700Z AUTO 29013KT 9999 -RA SCT017/// SCT030/// OVC039/// ///CB 04/02 Q0996 TEMPO 4000 SHRA=
LFRS 270630Z AUTO 29014G24KT 9999 -RA FEW021/// SCT046/// BKN100/// ///TCU 04/01 Q0996 TEMPO 4000 SHRA BKN030CB=
LFRS 270600Z AUTO 29012KT 270V330 9999 FEW024 BKN210 03/01 Q0995 TEMPO 4000 SHRA BKN030CB=
WC LFRS
WS LFRS
WV LFRS